Time;durP1;ratioP1;P1;durP2;ratioP2;P2;SDS_P1;SDS_P2;PMS_P1;PMS_P2;Temp;Humidity;BMP_temperature;BMP_pressure;BME280_temperature;BME280_humidity;BME280_pressure;Samples;Min_cycle;Max_cycle;Signal;HPM_P1;HPM_P2
2023/06/21 00:00:47;;;;;;;8.63;7.72;;;;;;;18.30;100.00;101113.16;5019027;28;20290;-60
2023/06/21 00:03:13;;;;;;;;;;;;;;;18.39;100.00;101114.25;5024527;28;20891;-60
2023/06/21 00:05:38;;;;;;;9.32;8.32;;;;;;;18.33;100.00;101120.94;5026191;28;19984;-60
2023/06/21 00:08:04;;;;;;;9.45;8.48;;;;;;;18.30;100.00;101127.06;5011772;28;20779;-60
2023/06/21 00:10:30;;;;;;;9.60;8.70;;;;;;;18.25;100.00;101130.69;5021533;28;20216;-61
2023/06/21 00:12:56;;;;;;;9.05;8.15;;;;;;;18.24;100.00;101136.50;5022232;28;20140;-60
2023/06/21 00:15:22;;;;;;;8.90;8.00;;;;;;;18.22;100.00;101125.66;5027160;28;20035;-61
2023/06/21 00:17:48;;;;;;;9.80;8.80;;;;;;;18.18;100.00;101137.59;5025548;28;20036;-60
2023/06/21 00:20:13;;;;;;;10.38;9.43;;;;;;;18.19;100.00;101136.47;5015555;28;20121;-60
2023/06/21 00:22:39;;;;;;;11.20;10.20;;;;;;;18.19;100.00;101140.09;5021665;28;20364;-60
2023/06/21 00:25:06;;;;;;;9.73;8.82;;;;;;;18.19;100.00;101147.59;5024584;28;20444;-60
2023/06/21 00:27:32;;;;;;;10.73;9.68;;;;;;;18.15;100.00;101148.16;5008973;28;20030;-61
2023/06/21 00:29:57;;;;;;;10.75;9.63;;;;;;;18.17;100.00;101150.66;5021390;28;20051;-60
2023/06/21 00:32:22;;;;;;;10.00;9.00;;;;;;;18.14;100.00;101154.81;5011081;28;20031;-60
2023/06/21 00:34:48;;;;;;;10.40;9.40;;;;;;;18.14;100.00;101153.97;5026228;28;20295;-60
2023/06/21 00:37:14;;;;;;;10.30;9.35;;;;;;;18.12;100.00;101139.53;5026222;28;20026;-61
2023/06/21 00:39:39;;;;;;;9.60;8.60;;;;;;;18.15;100.00;101141.78;5012621;28;20026;-60
2023/06/21 00:42:05;;;;;;;10.23;9.23;;;;;;;18.13;100.00;101147.59;5023278;28;20026;-60
2023/06/21 00:44:31;;;;;;;10.85;9.85;;;;;;;18.11;100.00;101148.97;5025908;28;20135;-60
2023/06/21 00:46:56;;;;;;;10.50;9.50;;;;;;;18.13;100.00;101155.09;5026327;28;20041;-61
2023/06/21 00:49:23;;;;;;;10.95;9.88;;;;;;;18.11;100.00;101155.38;5025201;28;20025;-60
2023/06/21 00:51:49;;;;;;;10.90;9.88;;;;;;;18.10;100.00;101150.09;5007441;28;20041;-60
2023/06/21 00:54:18;;;;;;;11.32;10.23;;;;;;;18.11;100.00;101151.75;5016674;28;20026;-60
2023/06/21 00:56:43;;;;;;;10.70;9.70;;;;;;;18.09;100.00;101153.97;5026388;28;20108;-60
2023/06/21 00:59:09;;;;;;;11.63;10.07;;;;;;;18.08;100.00;101157.84;5024502;28;20435;-60
2023/06/21 01:01:37;;;;;;;10.85;9.85;;;;;;;18.06;100.00;101163.69;5026733;28;20026;-60
2023/06/21 01:04:03;;;;;;;10.93;9.82;;;;;;;18.05;100.00;101164.81;5017469;28;20032;-60
2023/06/21 01:06:41;;;;;;;11.65;9.93;;;;;;;18.04;100.00;101163.13;5017661;28;20030;-60
2023/06/21 01:09:55;;;;;;;11.20;10.20;;;;;;;18.08;100.00;101169.81;5015236;28;20485;-60
2023/06/21 01:12:58;;;;;;;10.52;9.52;;;;;;;18.10;100.00;101169.56;5001465;28;20038;-60
2023/06/21 01:15:26;;;;;;;11.30;10.20;;;;;;;18.01;100.00;101174.81;5011135;28;20103;-61
2023/06/21 01:17:55;;;;;;;11.90;10.80;;;;;;;18.02;100.00;101176.47;5009201;28;20030;-61
2023/06/21 01:20:28;;;;;;;11.48;10.38;;;;;;;17.99;100.00;101176.16;5019891;28;20037;-60
2023/06/21 01:23:23;;;;;;;11.75;10.65;;;;;;;17.99;100.00;101171.44;5009607;28;20129;-60
2023/06/21 01:25:54;;;;;;;11.32;10.23;;;;;;;17.98;100.00;101175.34;5013959;28;20045;-60
2023/06/21 01:28:43;;;;;;;11.23;10.23;;;;;;;18.03;100.00;101168.97;5020951;28;20033;-60
2023/06/21 01:31:15;;;;;;;11.02;10.00;;;;;;;18.03;100.00;101160.63;5012578;28;20491;-60
2023/06/21 01:33:41;;;;;;;11.00;9.95;;;;;;;17.99;100.00;101176.16;5025217;28;20021;-60
2023/06/21 01:36:08;;;;;;;11.52;10.43;;;;;;;18.00;100.00;101175.91;5024837;28;20048;-60
2023/06/21 01:38:34;;;;;;;11.87;10.73;;;;;;;17.98;100.00;101178.09;5020511;28;20034;-60
2023/06/21 01:40:59;;;;;;;11.50;10.40;;;;;;;17.94;100.00;101174.19;5021186;28;20295;-61
2023/06/21 01:43:24;;;;;;;12.35;11.35;;;;;;;17.94;100.00;101178.94;5025752;28;20423;-60
2023/06/21 01:45:50;;;;;;;11.77;10.68;;;;;;;17.93;100.00;101180.88;5025682;28;20034;-60
2023/06/21 01:48:17;;;;;;;12.25;11.18;;;;;;;17.89;100.00;101182.50;5023796;28;20018;-60
2023/06/21 01:50:44;;;;;;;11.80;10.70;;;;;;;17.88;100.00;101178.91;5026663;28;20032;-60
2023/06/21 01:53:13;;;;;;;12.35;11.25;;;;;;;17.83;100.00;101183.59;5023918;28;20022;-60
2023/06/21 01:55:43;;;;;;;11.85;10.82;;;;;;;17.79;100.00;101177.78;5026374;28;20025;-59
2023/06/21 01:58:10;;;;;;;11.80;10.70;;;;;;;17.78;100.00;101175.25;5024545;28;20111;-60
2023/06/21 02:00:35;;;;;;;12.70;11.30;;;;;;;17.77;100.00;101181.91;5022346;28;20113;-60
2023/06/21 02:03:03;;;;;;;12.00;10.80;;;;;;;17.79;100.00;101179.69;5020396;28;20117;-60
2023/06/21 02:05:32;;;;;;;12.18;11.07;;;;;;;17.80;100.00;101184.16;5025458;28;20022;-60
2023/06/21 02:08:00;;;;;;;12.35;11.25;;;;;;;17.81;100.00;101195.00;5025164;28;20065;-61
2023/06/21 02:10:26;;;;;;;12.35;11.25;;;;;;;17.79;100.00;101200.00;5026126;28;20032;-60
2023/06/21 02:12:52;;;;;;;13.18;11.75;;;;;;;17.81;100.00;101203.34;5024944;28;20634;-59
2023/06/21 02:15:18;;;;;;;12.40;11.23;;;;;;;17.80;100.00;101203.63;5025555;28;20041;-60
2023/06/21 02:17:50;;;;;;;12.40;11.23;;;;;;;17.80;100.00;101204.44;5019077;28;20080;-60
2023/06/21 02:20:17;;;;;;;12.75;11.50;;;;;;;17.79;100.00;101201.91;5007039;28;20034;-60
2023/06/21 02:22:43;;;;;;;12.53;11.43;;;;;;;17.75;100.00;101192.47;5010678;28;20618;-59
2023/06/21 02:25:09;;;;;;;11.77;10.77;;;;;;;17.73;100.00;101211.34;5025289;28;20053;-60
2023/06/21 02:27:35;;;;;;;11.93;10.82;;;;;;;17.68;100.00;101208.50;5029332;28;20044;-60
2023/06/21 02:30:00;;;;;;;12.18;11.07;;;;;;;17.72;100.00;101212.41;5015886;28;20389;-60
2023/06/21 02:32:25;;;;;;;12.52;11.38;;;;;;;17.64;100.00;101214.63;5024436;28;20037;-60
2023/06/21 02:34:50;;;;;;;12.57;11.45;;;;;;;17.62;100.00;101227.09;5021054;28;20152;-60
2023/06/21 02:37:16;;;;;;;14.23;12.93;;;;;;;17.65;100.00;101221.00;5025551;28;20052;-60
2023/06/21 02:39:41;;;;;;;12.75;11.65;;;;;;;17.69;100.00;101221.28;5018984;28;20021;-60
2023/06/21 02:42:07;;;;;;;12.55;11.45;;;;;;;17.73;100.00;101233.56;5028121;28;20029;-60
2023/06/21 02:44:32;;;;;;;13.32;12.13;;;;;;;17.63;100.00;101223.19;5014175;28;20095;-60
2023/06/21 02:46:58;;;;;;;14.50;12.25;;;;;;;17.62;100.00;101236.25;5011191;28;20469;-61
2023/06/21 02:49:24;;;;;;;13.05;11.85;;;;;;;17.62;100.00;101233.47;5020838;28;20036;-60
2023/06/21 02:51:52;;;;;;;13.52;12.32;;;;;;;17.64;100.00;101236.00;5028367;28;20033;-60
2023/06/21 02:54:18;;;;;;;13.68;12.48;;;;;;;17.61;100.00;101240.13;5026945;28;20133;-60
2023/06/21 02:56:43;;;;;;;14.00;12.77;;;;;;;17.61;100.00;101242.91;5028440;28;20628;-60
2023/06/21 02:59:09;;;;;;;13.77;12.57;;;;;;;17.60;100.00;101241.25;5027381;28;20017;-60
2023/06/21 03:01:34;;;;;;;14.10;12.80;;;;;;;17.55;100.00;101249.56;5029456;28;20043;-60
2023/06/21 03:03:59;;;;;;;15.20;13.95;;;;;;;17.53;100.00;101243.41;5027190;28;20087;-60
2023/06/21 03:06:25;;;;;;;15.32;13.98;;;;;;;17.53;100.00;101248.97;5027486;28;20759;-60
2023/06/21 03:08:51;;;;;;;19.45;17.85;;;;;;;17.52;100.00;101260.34;5027669;28;20021;-60
2023/06/21 03:11:17;;;;;;;17.88;16.38;;;;;;;17.51;100.00;101259.50;5027957;28;20017;-60
2023/06/21 03:13:42;;;;;;;18.75;17.25;;;;;;;17.51;100.00;101259.50;5028450;28;20103;-60
2023/06/21 03:16:08;;;;;;;17.67;16.38;;;;;;;17.51;100.00;101270.63;5018622;28;20021;-60
2023/06/21 03:18:33;;;;;;;19.40;17.90;;;;;;;17.51;100.00;101276.19;5018770;28;20587;-60
2023/06/21 03:21:01;;;;;;;17.52;16.02;;;;;;;17.49;100.00;101291.44;5026636;28;20026;-60
2023/06/21 03:23:27;;;;;;;;;;;;;;;17.58;100.00;101290.66;5027262;28;20024;-60
2023/06/21 03:25:52;;;;;;;16.92;15.52;;;;;;;17.49;100.00;101295.06;5029001;28;19913;-60
2023/06/21 03:28:17;;;;;;;14.82;13.52;;;;;;;17.48;100.00;101293.34;5020633;28;20037;-60
2023/06/21 03:30:42;;;;;;;16.00;14.60;;;;;;;17.50;100.00;101298.66;5025918;28;20163;-60
2023/06/21 03:33:08;;;;;;;16.17;14.77;;;;;;;17.52;100.00;101302.84;5024108;28;20034;-59
2023/06/21 03:35:33;;;;;;;15.43;14.02;;;;;;;17.56;100.00;101304.00;5027743;28;20102;-58
2023/06/21 03:37:58;;;;;;;15.32;13.93;;;;;;;17.57;100.00;101296.50;5020771;28;20029;-59
2023/06/21 03:40:23;;;;;;;16.20;14.80;;;;;;;17.59;100.00;101294.31;5026616;28;20498;-60
2023/06/21 03:42:49;;;;;;;15.83;14.50;;;;;;;17.61;100.00;101300.41;5026639;28;20033;-61
2023/06/21 03:45:14;;;;;;;16.00;14.55;;;;;;;17.59;100.00;101300.69;5027425;28;20279;-59
2023/06/21 03:47:41;;;;;;;17.15;15.65;;;;;;;17.64;100.00;101292.38;5027576;28;20053;-60
2023/06/21 03:50:08;;;;;;;17.05;15.55;;;;;;;17.62;100.00;101297.34;5027923;28;20376;-60
2023/06/21 03:52:33;;;;;;;16.75;15.15;;;;;;;17.64;100.00;101291.56;5028266;28;20026;-60
2023/06/21 03:54:58;;;;;;;17.73;16.23;;;;;;;17.66;100.00;101291.28;5027371;28;20083;-60
2023/06/21 03:57:24;;;;;;;18.03;16.43;;;;;;;17.67;100.00;101296.56;5028395;28;20021;-60
2023/06/21 03:59:49;;;;;;;18.98;17.20;;;;;;;17.68;100.00;101294.63;5027495;28;20272;-60
2023/06/21 04:02:15;;;;;;;17.30;15.70;;;;;;;17.76;100.00;101305.28;5026552;28;20029;-60
2023/06/21 04:04:40;;;;;;;16.38;15.00;;;;;;;17.79;100.00;101311.13;5027820;28;20358;-60
2023/06/21 04:07:07;;;;;;;16.98;15.50;;;;;;;17.80;100.00;101306.41;5027513;28;20480;-60
2023/06/21 04:09:33;;;;;;;17.05;15.55;;;;;;;17.83;100.00;101306.69;5027115;28;20652;-63
2023/06/21 04:11:58;;;;;;;17.13;15.52;;;;;;;17.88;100.00;101314.22;5027700;28;20041;-60
2023/06/21 04:14:23;;;;;;;15.93;14.52;;;;;;;17.92;100.00;101320.09;5027274;28;20566;-60
2023/06/21 04:16:48;;;;;;;16.10;14.80;;;;;;;17.91;100.00;101310.94;5026619;28;20036;-60
2023/06/21 04:19:14;;;;;;;16.07;14.67;;;;;;;17.96;100.00;101315.69;5027485;28;20362;-60
2023/06/21 04:21:39;;;;;;;16.48;15.07;;;;;;;17.95;100.00;101314.03;5027626;28;20349;-60
2023/06/21 04:24:05;;;;;;;16.15;14.77;;;;;;;17.97;100.00;101326.53;5026464;28;20021;-60
2023/06/21 04:26:30;;;;;;;16.55;15.15;;;;;;;17.99;100.00;101324.31;5027950;28;20376;-60
2023/06/21 04:28:55;;;;;;;17.93;16.33;;;;;;;18.01;100.00;101335.19;5026963;28;20033;-60
2023/06/21 04:31:20;;;;;;;16.48;15.07;;;;;;;18.02;100.00;101334.06;5027179;28;20268;-60
2023/06/21 04:33:46;;;;;;;17.13;15.63;;;;;;;18.01;100.00;101336.00;5026456;28;20437;-60
2023/06/21 04:36:17;;;;;;;16.98;15.48;;;;;;;18.02;100.00;101331.28;5025551;28;20616;-60
2023/06/21 04:38:43;;;;;;;17.25;15.85;;;;;;;18.02;100.00;101332.13;5006932;28;20056;-60
2023/06/21 04:41:08;;;;;;;17.05;15.65;;;;;;;18.02;100.00;101336.84;5007377;28;20026;-60
2023/06/21 04:43:35;;;;;;;19.00;17.43;;;;;;;18.03;100.00;101332.94;5006834;28;20468;-60
2023/06/21 04:46:01;;;;;;;19.23;17.63;;;;;;;18.04;100.00;101341.00;5006875;28;20272;-60
2023/06/21 04:48:26;;;;;;;19.15;17.55;;;;;;;18.08;100.00;101341.31;5006048;28;20026;-60
2023/06/21 04:50:52;;;;;;;19.90;18.27;;;;;;;18.10;100.00;101342.75;5006858;28;20026;-60
2023/06/21 04:53:17;;;;;;;18.45;16.85;;;;;;;18.11;100.00;101340.78;5006481;28;20036;-60
2023/06/21 04:55:44;;;;;;;20.38;18.67;;;;;;;18.09;100.00;101343.81;5006703;28;20025;-60
2023/06/21 04:58:12;;;;;;;19.88;18.17;;;;;;;18.12;100.00;101350.81;5006400;28;20349;-60
2023/06/21 05:00:37;;;;;;;19.88;18.17;;;;;;;18.14;100.00;101345.78;5006827;28;20022;-60
2023/06/21 05:03:03;;;;;;;20.48;18.77;;;;;;;18.20;100.00;101343.88;5006086;28;20380;-60
2023/06/21 05:05:28;;;;;;;20.17;18.50;;;;;;;18.28;100.00;101338.66;5007239;28;20022;-60
2023/06/21 05:07:54;;;;;;;20.70;18.98;;;;;;;18.30;100.00;101355.91;5012566;28;20026;-59
2023/06/21 05:10:19;;;;;;;20.27;18.60;;;;;;;18.34;100.00;101350.63;5026440;28;20400;-60
2023/06/21 05:12:44;;;;;;;21.08;19.23;;;;;;;18.38;100.00;101354.56;5026524;28;20049;-61
2023/06/21 05:15:10;;;;;;;22.38;20.60;;;;;;;18.39;100.00;101365.41;5023686;28;20041;-60
2023/06/21 05:17:35;;;;;;;22.15;20.35;;;;;;;18.45;100.00;101365.41;5005658;28;20153;-60
2023/06/21 05:20:04;;;;;;;22.35;20.58;;;;;;;18.44;100.00;101366.53;5006601;28;20044;-60
2023/06/21 05:22:30;;;;;;;22.40;20.60;;;;;;;18.47;100.00;101375.19;5006602;28;20076;-60
2023/06/21 05:24:55;;;;;;;22.75;20.85;;;;;;;18.47;100.00;101377.13;5006897;28;20026;-60
2023/06/21 05:27:20;;;;;;;22.85;21.05;;;;;;;18.48;100.00;101382.41;5007145;28;20056;-60
2023/06/21 05:29:46;;;;;;;23.30;21.30;;;;;;;18.49;100.00;101388.81;5006195;28;20029;-60
2023/06/21 05:32:11;;;;;;;23.70;21.70;;;;;;;18.52;100.00;101391.91;5005642;28;20028;-60
2023/06/21 05:34:36;;;;;;;23.98;22.02;;;;;;;18.62;100.00;101391.94;5006672;28;20069;-60
2023/06/21 05:37:02;;;;;;;23.00;21.10;;;;;;;18.66;100.00;101387.53;5006332;28;20034;-60
2023/06/21 05:39:27;;;;;;;23.00;21.20;;;;;;;18.70;100.00;101387.00;5006199;28;20154;-60
2023/06/21 05:41:52;;;;;;;22.17;20.37;;;;;;;18.70;100.00;101381.44;5007310;28;20018;-60
2023/06/21 05:44:17;;;;;;;22.85;20.92;;;;;;;18.68;100.00;101387.28;5005258;28;20739;-60
2023/06/21 05:46:43;;;;;;;22.52;20.70;;;;;;;18.72;100.00;101384.78;5005610;28;20037;-60
2023/06/21 05:49:08;;;;;;;22.35;20.40;;;;;;;18.72;100.00;101393.13;5006237;28;20022;-60
2023/06/21 05:51:33;;;;;;;22.25;20.45;;;;;;;18.78;100.00;101394.81;5006515;28;20030;-60
2023/06/21 05:53:59;;;;;;;21.58;19.75;;;;;;;18.81;100.00;101411.00;5006179;28;20022;-60
2023/06/21 05:56:26;;;;;;;21.67;19.87;;;;;;;18.88;100.00;101400.44;5009210;28;20424;-60
2023/06/21 05:58:52;;;;;;;21.42;19.63;;;;;;;18.89;100.00;101408.50;5010499;28;20638;-60
2023/06/21 06:01:17;;;;;;;19.33;17.73;;;;;;;18.92;100.00;101410.75;5009707;28;20113;-60
2023/06/21 06:03:42;;;;;;;20.83;19.05;;;;;;;18.97;100.00;101418.28;5008226;28;20072;-60
2023/06/21 06:06:08;;;;;;;21.30;19.65;;;;;;;19.12;100.00;101425.84;5009748;28;20461;-60
2023/06/21 06:08:34;;;;;;;19.52;17.83;;;;;;;19.20;100.00;101425.31;5020536;28;20048;-60
2023/06/21 06:10:59;;;;;;;19.63;18.02;;;;;;;19.34;100.00;101426.47;5030087;28;20197;-61
2023/06/21 06:13:24;;;;;;;20.00;18.30;;;;;;;19.38;100.00;101430.38;5029568;28;20396;-60
2023/06/21 06:15:50;;;;;;;18.42;16.90;;;;;;;19.45;100.00;101435.66;5029961;28;20436;-60
2023/06/21 06:18:15;;;;;;;18.52;17.10;;;;;;;19.45;100.00;101441.25;5028324;28;20033;-58
2023/06/21 06:20:41;;;;;;;18.03;16.53;;;;;;;19.43;100.00;101435.13;5029639;28;20109;-60
2023/06/21 06:23:10;;;;;;;17.58;16.08;;;;;;;19.38;100.00;101438.72;5029573;28;20612;-60
2023/06/21 06:25:35;;;;;;;17.63;16.13;;;;;;;19.41;100.00;101434.53;5030067;28;20036;-60
2023/06/21 06:28:00;;;;;;;17.30;15.63;;;;;;;19.39;100.00;101440.41;5028878;28;20392;-60
2023/06/21 06:30:26;;;;;;;17.23;15.73;;;;;;;19.47;100.00;101447.38;5029657;28;20040;-59
2023/06/21 06:32:51;;;;;;;15.77;14.27;;;;;;;19.42;100.00;101444.59;5028756;28;20290;-61
2023/06/21 06:35:16;;;;;;;16.23;14.73;;;;;;;19.40;100.00;101457.94;5029117;28;20303;-60
2023/06/21 06:37:42;;;;;;;15.82;14.45;;;;;;;19.41;100.00;101454.03;5029641;28;20061;-60
2023/06/21 06:40:07;;;;;;;16.40;14.90;;;;;;;19.48;100.00;101464.94;5028693;28;20024;-60
2023/06/21 06:42:33;;;;;;;15.70;14.18;;;;;;;19.48;100.00;101454.63;5029510;28;20414;-61
2023/06/21 06:44:58;;;;;;;15.93;14.43;;;;;;;19.50;100.00;101462.69;5028589;28;20053;-60
2023/06/21 06:47:23;;;;;;;15.40;14.00;;;;;;;19.53;100.00;101465.78;5028571;28;20411;-60
2023/06/21 06:49:48;;;;;;;15.85;14.38;;;;;;;19.62;100.00;101469.75;5029245;28;20272;-60
2023/06/21 06:52:14;;;;;;;15.82;14.43;;;;;;;19.70;100.00;101474.75;5028720;28;20025;-59
2023/06/21 06:54:40;;;;;;;15.88;14.40;;;;;;;19.86;100.00;101483.13;5028936;28;20039;-60
2023/06/21 06:57:05;;;;;;;14.80;13.50;;;;;;;19.92;100.00;101487.59;5029266;28;20025;-61
2023/06/21 06:59:30;;;;;;;14.80;13.50;;;;;;;19.99;100.00;101490.13;5028265;28;20108;-60
2023/06/21 07:01:56;;;;;;;15.53;14.23;;;;;;;20.04;100.00;101499.31;5027853;28;20079;-60
2023/06/21 07:04:21;;;;;;;16.30;14.88;;;;;;;20.05;100.00;101497.38;5028625;28;20769;-60
2023/06/21 07:06:46;;;;;;;14.88;13.57;;;;;;;20.10;100.00;101501.00;5028887;28;20084;-61
2023/06/21 07:09:12;;;;;;;15.57;14.27;;;;;;;20.12;100.00;101503.50;5028221;28;20026;-61
2023/06/21 07:11:37;;;;;;;14.95;13.65;;;;;;;20.14;100.00;101501.28;5028806;28;20522;-61
2023/06/21 07:14:02;;;;;;;14.75;13.45;;;;;;;20.19;100.00;101506.84;5027978;28;20400;-61
2023/06/21 07:16:41;;;;;;;12.95;11.85;;;;;;;20.23;100.00;101509.94;5021518;28;20045;-60
2023/06/21 07:19:07;;;;;;;12.68;11.57;;;;;;;20.21;100.00;101505.44;5028245;28;20674;-61
2023/06/21 07:21:32;;;;;;;12.63;11.50;;;;;;;20.34;100.00;101498.47;5028525;28;20088;-60
2023/06/21 07:23:57;;;;;;;13.57;12.30;;;;;;;20.44;100.00;101500.41;5027870;28;20029;-61
2023/06/21 07:26:23;;;;;;;13.50;12.30;;;;;;;20.54;100.00;101506.03;5029029;28;20140;-60
2023/06/21 07:28:48;;;;;;;13.18;11.98;;;;;;;20.53;100.00;101504.34;5027821;28;20444;-61
2023/06/21 07:31:13;;;;;;;13.35;12.15;;;;;;;20.61;100.00;101506.56;5027341;28;20334;-61
2023/06/21 07:33:38;;;;;;;11.53;10.53;;;;;;;20.66;100.00;101506.53;5027596;28;20033;-60
2023/06/21 07:36:05;;;;;;;12.43;11.23;;;;;;;20.72;100.00;101512.94;5028250;28;20273;-61
2023/06/21 07:38:30;;;;;;;11.60;10.52;;;;;;;20.72;100.00;101507.38;5027738;28;20021;-60
2023/06/21 07:40:55;;;;;;;11.15;10.07;;;;;;;20.73;100.00;101503.44;5028360;28;20036;-60
2023/06/21 07:43:21;;;;;;;11.38;10.27;;;;;;;20.94;100.00;101498.66;5027959;28;20064;-61
2023/06/21 07:45:46;;;;;;;10.23;9.18;;;;;;;21.10;100.00;101508.66;5028166;28;20025;-61
2023/06/21 07:48:12;;;;;;;8.02;6.70;;;;;;;21.10;96.69;101510.63;5027024;28;20025;-60
2023/06/21 07:50:37;;;;;;;9.30;7.57;;;;;;;21.07;94.85;101509.22;5028111;28;20045;-61
2023/06/21 07:53:03;;;;;;;8.43;7.28;;;;;;;21.08;96.00;101516.47;5026423;28;20029;-61
2023/06/21 07:55:28;;;;;;;8.23;7.32;;;;;;;21.02;98.57;101514.81;5027959;28;20026;-61
2023/06/21 07:57:53;;;;;;;7.57;6.88;;;;;;;20.95;97.22;101519.88;5027713;28;20109;-61
2023/06/21 08:00:19;;;;;;;8.50;7.60;;;;;;;21.00;100.00;101517.06;5027568;28;20032;-60
2023/06/21 08:02:44;;;;;;;7.85;7.00;;;;;;;21.06;95.19;101518.72;5026628;28;20025;-61
2023/06/21 08:05:10;;;;;;;8.38;7.53;;;;;;;21.12;95.99;101525.13;5027682;28;20028;-60
2023/06/21 08:07:35;;;;;;;7.25;6.55;;;;;;;21.23;93.64;101519.19;5027620;28;20052;-61
2023/06/21 08:10:01;;;;;;;8.43;7.63;;;;;;;21.27;93.34;101524.22;5027051;28;20025;-61
2023/06/21 08:12:26;;;;;;;8.20;7.40;;;;;;;21.34;93.05;101527.56;5027643;28;20400;-60
2023/06/21 08:14:52;;;;;;;8.55;7.65;;;;;;;21.39;94.05;101521.94;5027339;28;20064;-60
2023/06/21 08:17:17;;;;;;;8.40;7.40;;;;;;;21.48;92.21;101532.25;5026544;28;20075;-61
2023/06/21 08:19:42;;;;;;;7.57;6.80;;;;;;;21.48;89.58;101535.03;5026456;28;20615;-61
2023/06/21 08:22:08;;;;;;;8.27;7.37;;;;;;;21.55;91.44;101531.97;5027607;28;20025;-60
2023/06/21 08:24:34;;;;;;;7.95;7.15;;;;;;;21.69;93.63;101537.72;5027103;28;20279;-61
2023/06/21 08:27:00;;;;;;;8.23;7.43;;;;;;;21.74;89.68;101538.53;5027222;28;20037;-61
2023/06/21 08:29:25;;;;;;;9.40;8.50;;;;;;;21.80;91.65;101539.34;5026860;28;20037;-61
2023/06/21 08:31:50;;;;;;;10.97;10.00;;;;;;;21.89;89.70;101540.41;5026369;28;20017;-61
2023/06/21 08:34:16;;;;;;;10.10;9.20;;;;;;;21.94;86.37;101540.34;5027092;28;20300;-61
2023/06/21 08:36:41;;;;;;;10.30;9.30;;;;;;;22.01;88.22;101545.66;5027070;28;20631;-61
2023/06/21 08:39:07;;;;;;;10.60;9.70;;;;;;;21.99;88.14;101540.31;5026411;28;20283;-61
2023/06/21 08:41:35;;;;;;;10.40;9.40;;;;;;;22.15;92.98;101535.50;5027616;28;20044;-60
2023/06/21 08:44:00;;;;;;;10.48;9.40;;;;;;;22.22;87.68;101541.59;5026515;28;20032;-61
2023/06/21 08:46:27;;;;;;;10.98;9.98;;;;;;;22.30;86.48;101542.91;5026059;28;20380;-59
2023/06/21 08:48:56;;;;;;;11.00;9.95;;;;;;;22.35;85.12;101537.28;5027408;28;20034;-60
2023/06/21 08:51:22;;;;;;;8.40;7.18;;;;;;;22.40;79.72;101534.44;5027749;28;20044;-61
2023/06/21 08:54:00;;;;;;;8.00;6.63;;;;;;;22.43;81.30;101542.25;5026533;28;20052;-60
2023/06/21 08:56:28;;;;;;;8.45;7.65;;;;;;;22.40;78.53;101547.59;5027039;28;20044;-60
2023/06/21 08:59:05;;;;;;;9.85;8.95;;;;;;;22.57;82.06;101548.00;5026785;28;20032;-61
2023/06/21 09:01:48;;;;;;;9.85;8.27;;;;;;;22.77;82.30;101542.22;5026355;28;20432;-61
2023/06/21 09:04:16;;;;;;;9.00;8.10;;;;;;;22.87;80.18;101551.63;5025996;28;20503;-61
2023/06/21 09:06:43;;;;;;;8.30;7.50;;;;;;;22.92;80.20;101546.00;5026573;28;20045;-61
2023/06/21 09:09:10;;;;;;;6.00;5.00;;;;;;;23.00;74.59;101556.56;5025007;28;20027;-61
2023/06/21 09:11:37;;;;;;;7.15;5.88;;;;;;;23.05;75.82;101550.88;5026602;28;20079;-60
2023/06/21 09:14:03;;;;;;;8.88;6.10;;;;;;;23.18;76.87;101554.97;5025780;28;20068;-61
2023/06/21 09:16:29;;;;;;;7.50;6.75;;;;;;;23.26;77.46;101555.13;5025257;28;20056;-60
2023/06/21 09:18:55;;;;;;;6.65;5.95;;;;;;;23.32;74.35;101553.13;5023706;28;20037;-61
2023/06/21 09:21:21;;;;;;;5.13;4.05;;;;;;;23.40;70.25;101560.84;5024351;28;20021;-58
2023/06/21 09:23:47;;;;;;;7.28;4.40;;;;;;;23.46;69.33;101565.25;5024150;28;20112;-60
2023/06/21 09:26:12;;;;;;;6.38;4.45;;;;;;;23.56;71.61;101569.88;5023811;28;20025;-61
2023/06/21 09:28:38;;;;;;;5.80;4.45;;;;;;;23.72;71.66;101556.50;5023996;28;20026;-60
2023/06/21 09:31:03;;;;;;;6.20;4.57;;;;;;;24.02;72.13;101560.84;5026897;28;20525;-61
2023/06/21 09:33:29;;;;;;;6.35;4.00;;;;;;;24.19;71.94;101566.75;5027790;28;20113;-59
2023/06/21 09:35:56;;;;;;;5.10;3.83;;;;;;;24.45;70.80;101564.41;5029135;28;20037;-60
2023/06/21 09:38:32;;;;;;;5.35;3.72;;;;;;;24.73;65.69;101564.47;5028160;28;20097;-60
2023/06/21 09:40:58;;;;;;;5.05;3.70;;;;;;;26.06;61.12;101565.41;5027885;28;20021;-61
2023/06/21 09:43:23;;;;;;;4.47;3.25;;;;;;;27.28;55.25;101573.50;5028143;28;20040;-60
2023/06/21 09:46:07;;;;;;;4.13;2.90;;;;;;;29.09;56.32;101571.03;5027893;28;20029;-60
2023/06/21 09:48:36;;;;;;;4.22;2.65;;;;;;;30.30;49.98;101564.63;5027826;28;20029;-60
2023/06/21 09:51:03;;;;;;;3.65;2.80;;;;;;;31.51;45.53;101580.28;5027936;28;20052;-61
2023/06/21 09:53:28;;;;;;;4.93;4.22;;;;;;;31.91;44.53;101568.19;5027293;28;20028;-59
2023/06/21 09:55:59;;;;;;;6.38;4.30;;;;;;;30.50;46.55;101580.78;5028376;28;20021;-61
2023/06/21 09:58:25;;;;;;;6.38;4.65;;;;;;;29.64;47.44;101572.94;5027534;28;20017;-61
2023/06/21 10:00:50;;;;;;;4.35;3.75;;;;;;;30.81;46.87;101567.31;5026947;28;20021;-61
2023/06/21 10:03:16;;;;;;;4.05;2.97;;;;;;;32.22;41.90;101578.88;5027114;28;20544;-60
2023/06/21 10:05:58;;;;;;;2.63;2.20;;;;;;;33.32;39.99;101577.47;5027791;28;20032;-61
2023/06/21 10:08:28;;;;;;;3.75;2.33;;;;;;;34.52;35.52;101572.94;5027451;28;20028;-59
2023/06/21 10:10:54;;;;;;;4.95;3.47;;;;;;;34.74;35.46;101579.03;5027918;28;20339;-61
2023/06/21 10:13:30;;;;;;;4.32;3.00;;;;;;;34.65;36.10;101581.31;5026511;28;20037;-61
2023/06/21 10:15:56;;;;;;;3.35;2.88;;;;;;;33.37;34.25;101574.34;5026849;28;20500;-61
2023/06/21 10:18:23;;;;;;;3.50;2.90;;;;;;;31.75;38.40;101596.50;5027310;28;20032;-58
2023/06/21 10:20:53;;;;;;;4.70;3.45;;;;;;;32.27;38.91;101592.81;5027457;28;20195;-60
2023/06/21 10:23:19;;;;;;;4.45;3.20;;;;;;;31.50;40.04;101592.84;5027115;28;20445;-60
2023/06/21 10:25:47;;;;;;;4.75;3.58;;;;;;;29.59;44.38;101593.78;5027440;28;20021;-60
2023/06/21 10:28:15;;;;;;;;;;;;;;;29.51;47.14;101605.16;5027316;28;20026;-60
2023/06/21 10:30:42;;;;;;;5.72;4.32;;;;;;;29.57;44.60;101604.66;5027184;28;19996;-59
2023/06/21 10:33:09;;;;;;;5.20;4.50;;;;;;;29.45;44.94;101602.53;5028149;28;20021;-61
2023/06/21 10:35:42;;;;;;;5.55;3.75;;;;;;;29.11;46.53;101608.31;5029791;28;20070;-61
2023/06/21 10:38:21;;;;;;;4.35;3.10;;;;;;;28.53;47.90;101606.91;5028827;28;20057;-61
2023/06/21 10:40:49;;;;;;;3.10;2.08;;;;;;;28.79;43.21;101619.03;5027358;28;20120;-61
2023/06/21 10:43:14;;;;;;;3.13;1.58;;;;;;;28.24;43.56;101616.88;5025045;28;20056;-60
2023/06/21 10:45:40;;;;;;;2.90;1.80;;;;;;;27.73;46.05;101614.81;5026689;28;20566;-61
2023/06/21 10:48:08;;;;;;;2.22;1.42;;;;;;;27.61;48.20;101612.59;5026078;28;20468;-60
2023/06/21 10:50:33;;;;;;;1.95;1.50;;;;;;;27.56;46.09;101621.22;5026982;28;20087;-61
2023/06/21 10:52:59;;;;;;;2.25;1.63;;;;;;;27.70;48.99;101619.09;5026178;28;20380;-61
2023/06/21 10:55:24;;;;;;;2.78;1.88;;;;;;;27.84;47.15;101610.53;5027171;28;20610;-61
2023/06/21 10:57:52;;;;;;;2.90;1.52;;;;;;;27.61;46.56;101615.41;5026376;28;20061;-60
2023/06/21 11:00:19;;;;;;;2.10;1.48;;;;;;;27.75;46.83;101630.25;5026342;28;20079;-61
2023/06/21 11:02:44;;;;;;;2.25;1.40;;;;;;;27.63;45.07;101627.22;5026175;28;20014;-61
2023/06/21 11:05:23;;;;;;;2.38;1.60;;;;;;;27.67;46.10;101629.03;5026336;28;20575;-60
2023/06/21 11:08:04;;;;;;;2.08;1.40;;;;;;;27.75;46.49;101632.25;5026206;28;20029;-59